Sweetwater, Florida
Current Conditions -  °F | °C
As of 11:53 AM on Sunday 21 Dec 2014 (Local Time) from KMIA Reporting Station
Broken Clouds Broken Clouds  
Wind Chill: 78°   Ceiling: 14000
Heat Index: 80°   Visibility: 10mi
Dew Point: 64°   Wind: 9mph
Humidity: 62%   Direction: 140°SE
Pressure: 30.1"   Gusts: NA
Location:  25.76°N, 80.37°W
Report Text: KMIA 211653Z 14008KT 10SM SCT030 BKN140 BKN250 26/18 A3010 RMK AO2 SLP191 T02560178
Loading
Personal Weather Stations






























Interactive Weather Map New forecast layout! Learn more

10-Day Weather Forecast

Advertisements
Track Severe Weather on mobile